sensor_id;sensor_type;location;lat;lon;timestamp;P1;durP1;ratioP1;P2;durP2;ratioP2
46334;SDS011;32051;48.882;9.210;2023-10-31T00:01:46;0.88;;;0.40;;
46334;SDS011;32051;48.882;9.210;2023-10-31T00:04:14;0.40;;;0.40;;
46334;SDS011;32051;48.882;9.210;2023-10-31T00:06:40;0.40;;;0.40;;
46334;SDS011;32051;48.882;9.210;2023-10-31T00:09:06;0.32;;;0.32;;
46334;SDS011;32051;48.882;9.210;2023-10-31T00:11:32;0.30;;;0.30;;
46334;SDS011;32051;48.882;9.210;2023-10-31T00:13:58;3.20;;;0.30;;
46334;SDS011;32051;48.882;9.210;2023-10-31T00:16:24;0.20;;;0.20;;
46334;SDS011;32051;48.882;9.210;2023-10-31T00:18:50;0.60;;;0.47;;
46334;SDS011;32051;48.882;9.210;2023-10-31T00:21:16;0.55;;;0.32;;
46334;SDS011;32051;48.882;9.210;2023-10-31T00:23:46;0.70;;;0.70;;
46334;SDS011;32051;48.882;9.210;2023-10-31T00:26:12;0.95;;;0.95;;
46334;SDS011;32051;48.882;9.210;2023-10-31T00:28:44;1.35;;;0.35;;
46334;SDS011;32051;48.882;9.210;2023-10-31T00:31:10;0.80;;;0.32;;
46334;SDS011;32051;48.882;9.210;2023-10-31T00:33:37;0.30;;;0.30;;
46334;SDS011;32051;48.882;9.210;2023-10-31T00:36:03;1.13;;;0.40;;
46334;SDS011;32051;48.882;9.210;2023-10-31T00:38:29;0.50;;;0.40;;
46334;SDS011;32051;48.882;9.210;2023-10-31T00:40:55;0.75;;;0.35;;
46334;SDS011;32051;48.882;9.210;2023-10-31T00:43:21;1.13;;;0.20;;
46334;SDS011;32051;48.882;9.210;2023-10-31T00:45:47;0.20;;;0.20;;
46334;SDS011;32051;48.882;9.210;2023-10-31T00:48:13;0.20;;;0.20;;
46334;SDS011;32051;48.882;9.210;2023-10-31T00:50:39;0.20;;;0.20;;
46334;SDS011;32051;48.882;9.210;2023-10-31T00:53:06;0.17;;;0.17;;
46334;SDS011;32051;48.882;9.210;2023-10-31T00:55:33;0.17;;;0.17;;
46334;SDS011;32051;48.882;9.210;2023-10-31T00:57:59;0.35;;;0.28;;
46334;SDS011;32051;48.882;9.210;2023-10-31T01:00:25;0.70;;;0.70;;
46334;SDS011;32051;48.882;9.210;2023-10-31T01:02:51;0.28;;;0.28;;
46334;SDS011;32051;48.882;9.210;2023-10-31T01:05:17;1.17;;;0.55;;
46334;SDS011;32051;48.882;9.210;2023-10-31T01:07:43;2.00;;;0.20;;
46334;SDS011;32051;48.882;9.210;2023-10-31T01:10:09;2.20;;;0.43;;
46334;SDS011;32051;48.882;9.210;2023-10-31T01:12:36;2.00;;;0.35;;
46334;SDS011;32051;48.882;9.210;2023-10-31T01:15:02;0.13;;;0.13;;
46334;SDS011;32051;48.882;9.210;2023-10-31T01:17:28;1.20;;;0.40;;
46334;SDS011;32051;48.882;9.210;2023-10-31T01:19:54;0.40;;;0.30;;
46334;SDS011;32051;48.882;9.210;2023-10-31T01:22:21;1.30;;;0.30;;
46334;SDS011;32051;48.882;9.210;2023-10-31T01:24:47;1.13;;;0.40;;
46334;SDS011;32051;48.882;9.210;2023-10-31T01:27:13;0.55;;;0.30;;
46334;SDS011;32051;48.882;9.210;2023-10-31T01:29:40;6.47;;;0.45;;
46334;SDS011;32051;48.882;9.210;2023-10-31T01:32:06;0.55;;;0.30;;
46334;SDS011;32051;48.882;9.210;2023-10-31T01:34:32;1.08;;;0.50;;
46334;SDS011;32051;48.882;9.210;2023-10-31T01:36:58;1.42;;;0.57;;
46334;SDS011;32051;48.882;9.210;2023-10-31T01:39:26;1.05;;;0.30;;
46334;SDS011;32051;48.882;9.210;2023-10-31T01:41:52;1.70;;;0.93;;
46334;SDS011;32051;48.882;9.210;2023-10-31T01:44:19;0.40;;;0.40;;
46334;SDS011;32051;48.882;9.210;2023-10-31T01:46:45;1.85;;;0.68;;
46334;SDS011;32051;48.882;9.210;2023-10-31T01:49:12;0.35;;;0.35;;
46334;SDS011;32051;48.882;9.210;2023-10-31T01:51:38;1.42;;;0.98;;
46334;SDS011;32051;48.882;9.210;2023-10-31T01:54:06;0.20;;;0.20;;
46334;SDS011;32051;48.882;9.210;2023-10-31T01:56:33;2.45;;;0.50;;
46334;SDS011;32051;48.882;9.210;2023-10-31T01:59:00;4.25;;;0.68;;
46334;SDS011;32051;48.882;9.210;2023-10-31T02:01:26;0.40;;;0.40;;
46334;SDS011;32051;48.882;9.210;2023-10-31T02:03:53;2.55;;;0.50;;
46334;SDS011;32051;48.882;9.210;2023-10-31T02:06:19;1.77;;;0.45;;
46334;SDS011;32051;48.882;9.210;2023-10-31T02:08:47;0.40;;;0.40;;
46334;SDS011;32051;48.882;9.210;2023-10-31T02:11:13;0.68;;;0.28;;
46334;SDS011;32051;48.882;9.210;2023-10-31T02:13:39;0.32;;;0.30;;
46334;SDS011;32051;48.882;9.210;2023-10-31T02:16:05;5.30;;;0.38;;
46334;SDS011;32051;48.882;9.210;2023-10-31T02:18:33;0.80;;;0.52;;
46334;SDS011;32051;48.882;9.210;2023-10-31T02:20:59;0.63;;;0.40;;
46334;SDS011;32051;48.882;9.210;2023-10-31T02:23:25;0.38;;;0.38;;
46334;SDS011;32051;48.882;9.210;2023-10-31T02:25:52;0.88;;;0.50;;
46334;SDS011;32051;48.882;9.210;2023-10-31T02:28:18;5.18;;;0.77;;
46334;SDS011;32051;48.882;9.210;2023-10-31T02:30:44;0.40;;;0.40;;
46334;SDS011;32051;48.882;9.210;2023-10-31T02:33:10;1.77;;;0.40;;
46334;SDS011;32051;48.882;9.210;2023-10-31T02:35:36;3.60;;;0.30;;
46334;SDS011;32051;48.882;9.210;2023-10-31T02:38:02;0.57;;;0.55;;
46334;SDS011;32051;48.882;9.210;2023-10-31T02:40:28;1.20;;;0.50;;
46334;SDS011;32051;48.882;9.210;2023-10-31T02:42:54;1.40;;;0.60;;
46334;SDS011;32051;48.882;9.210;2023-10-31T02:45:21;2.85;;;0.65;;
46334;SDS011;32051;48.882;9.210;2023-10-31T02:47:47;0.90;;;0.40;;
46334;SDS011;32051;48.882;9.210;2023-10-31T02:50:13;3.42;;;0.43;;
46334;SDS011;32051;48.882;9.210;2023-10-31T02:52:39;0.40;;;0.30;;
46334;SDS011;32051;48.882;9.210;2023-10-31T02:55:05;6.72;;;0.40;;
46334;SDS011;32051;48.882;9.210;2023-10-31T02:57:31;1.55;;;0.10;;
46334;SDS011;32051;48.882;9.210;2023-10-31T02:59:57;0.45;;;0.20;;
46334;SDS011;32051;48.882;9.210;2023-10-31T03:02:23;3.30;;;0.65;;
46334;SDS011;32051;48.882;9.210;2023-10-31T03:04:49;1.73;;;0.32;;
46334;SDS011;32051;48.882;9.210;2023-10-31T03:07:15;0.50;;;0.45;;
46334;SDS011;32051;48.882;9.210;2023-10-31T03:09:41;3.50;;;0.60;;
46334;SDS011;32051;48.882;9.210;2023-10-31T03:12:07;1.00;;;0.30;;
46334;SDS011;32051;48.882;9.210;2023-10-31T03:14:33;3.75;;;0.50;;
46334;SDS011;32051;48.882;9.210;2023-10-31T03:16:59;0.40;;;0.40;;
46334;SDS011;32051;48.882;9.210;2023-10-31T03:19:26;0.60;;;0.30;;
46334;SDS011;32051;48.882;9.210;2023-10-31T03:21:52;5.35;;;0.38;;
46334;SDS011;32051;48.882;9.210;2023-10-31T03:24:19;0.77;;;0.50;;
46334;SDS011;32051;48.882;9.210;2023-10-31T03:26:45;1.75;;;0.40;;
46334;SDS011;32051;48.882;9.210;2023-10-31T03:29:11;1.05;;;0.30;;
46334;SDS011;32051;48.882;9.210;2023-10-31T03:31:38;2.05;;;0.30;;
46334;SDS011;32051;48.882;9.210;2023-10-31T03:34:04;0.95;;;0.20;;
46334;SDS011;32051;48.882;9.210;2023-10-31T03:36:30;0.98;;;0.47;;
46334;SDS011;32051;48.882;9.210;2023-10-31T03:38:56;0.20;;;0.20;;
46334;SDS011;32051;48.882;9.210;2023-10-31T03:41:22;5.68;;;0.50;;
46334;SDS011;32051;48.882;9.210;2023-10-31T03:43:49;0.70;;;0.43;;
46334;SDS011;32051;48.882;9.210;2023-10-31T03:46:15;9.60;;;0.80;;
46334;SDS011;32051;48.882;9.210;2023-10-31T03:48:42;1.77;;;0.40;;
46334;SDS011;32051;48.882;9.210;2023-10-31T03:51:08;2.60;;;0.50;;
46334;SDS011;32051;48.882;9.210;2023-10-31T03:53:34;0.90;;;0.40;;
46334;SDS011;32051;48.882;9.210;2023-10-31T03:56:00;0.73;;;0.40;;
46334;SDS011;32051;48.882;9.210;2023-10-31T03:58:27;3.33;;;0.25;;
46334;SDS011;32051;48.882;9.210;2023-10-31T04:00:53;3.50;;;0.40;;
46334;SDS011;32051;48.882;9.210;2023-10-31T04:03:19;0.20;;;0.20;;
46334;SDS011;32051;48.882;9.210;2023-10-31T04:05:45;0.50;;;0.40;;
46334;SDS011;32051;48.882;9.210;2023-10-31T04:08:11;0.25;;;0.25;;
46334;SDS011;32051;48.882;9.210;2023-10-31T04:10:37;3.70;;;0.32;;
46334;SDS011;32051;48.882;9.210;2023-10-31T04:13:03;1.30;;;0.20;;
46334;SDS011;32051;48.882;9.210;2023-10-31T04:15:29;0.30;;;0.30;;
46334;SDS011;32051;48.882;9.210;2023-10-31T04:17:55;2.22;;;0.40;;
46334;SDS011;32051;48.882;9.210;2023-10-31T04:20:21;0.30;;;0.30;;
46334;SDS011;32051;48.882;9.210;2023-10-31T04:22:47;0.45;;;0.40;;
46334;SDS011;32051;48.882;9.210;2023-10-31T04:25:14;3.78;;;0.90;;
46334;SDS011;32051;48.882;9.210;2023-10-31T04:27:40;0.75;;;0.40;;
46334;SDS011;32051;48.882;9.210;2023-10-31T04:30:06;0.98;;;0.45;;
46334;SDS011;32051;48.882;9.210;2023-10-31T04:32:32;0.32;;;0.30;;
46334;SDS011;32051;48.882;9.210;2023-10-31T04:34:58;2.20;;;0.28;;
46334;SDS011;32051;48.882;9.210;2023-10-31T04:37:25;0.80;;;0.55;;
46334;SDS011;32051;48.882;9.210;2023-10-31T04:39:51;7.18;;;0.43;;
46334;SDS011;32051;48.882;9.210;2023-10-31T04:42:17;4.22;;;0.65;;
46334;SDS011;32051;48.882;9.210;2023-10-31T04:44:45;0.25;;;0.25;;
46334;SDS011;32051;48.882;9.210;2023-10-31T04:47:11;0.20;;;0.20;;
46334;SDS011;32051;48.882;9.210;2023-10-31T04:49:37;0.43;;;0.43;;
46334;SDS011;32051;48.882;9.210;2023-10-31T04:52:03;0.73;;;0.30;;
46334;SDS011;32051;48.882;9.210;2023-10-31T04:54:30;3.15;;;0.50;;
46334;SDS011;32051;48.882;9.210;2023-10-31T04:56:56;0.45;;;0.32;;
46334;SDS011;32051;48.882;9.210;2023-10-31T04:59:22;1.45;;;0.30;;
46334;SDS011;32051;48.882;9.210;2023-10-31T05:01:48;1.83;;;0.30;;
46334;SDS011;32051;48.882;9.210;2023-10-31T05:04:16;0.75;;;0.47;;
46334;SDS011;32051;48.882;9.210;2023-10-31T05:06:42;2.67;;;0.30;;
46334;SDS011;32051;48.882;9.210;2023-10-31T05:09:09;0.98;;;0.52;;
46334;SDS011;32051;48.882;9.210;2023-10-31T05:11:35;0.60;;;0.20;;
46334;SDS011;32051;48.882;9.210;2023-10-31T05:14:01;1.27;;;0.55;;
46334;SDS011;32051;48.882;9.210;2023-10-31T05:16:28;0.30;;;0.28;;
46334;SDS011;32051;48.882;9.210;2023-10-31T05:18:54;2.83;;;0.40;;
46334;SDS011;32051;48.882;9.210;2023-10-31T05:21:20;0.40;;;0.32;;
46334;SDS011;32051;48.882;9.210;2023-10-31T05:23:46;2.83;;;0.30;;
46334;SDS011;32051;48.882;9.210;2023-10-31T05:26:12;6.60;;;0.40;;
46334;SDS011;32051;48.882;9.210;2023-10-31T05:28:38;4.63;;;0.38;;
46334;SDS011;32051;48.882;9.210;2023-10-31T05:31:04;1.38;;;0.35;;
46334;SDS011;32051;48.882;9.210;2023-10-31T05:33:30;0.88;;;0.30;;
46334;SDS011;32051;48.882;9.210;2023-10-31T05:35:56;0.73;;;0.43;;
46334;SDS011;32051;48.882;9.210;2023-10-31T05:38:22;1.30;;;0.20;;
46334;SDS011;32051;48.882;9.210;2023-10-31T05:40:48;0.93;;;0.30;;
46334;SDS011;32051;48.882;9.210;2023-10-31T05:43:14;0.68;;;0.50;;
46334;SDS011;32051;48.882;9.210;2023-10-31T05:45:40;0.73;;;0.73;;
46334;SDS011;32051;48.882;9.210;2023-10-31T05:48:06;1.17;;;0.38;;
46334;SDS011;32051;48.882;9.210;2023-10-31T05:50:32;1.17;;;0.30;;
46334;SDS011;32051;48.882;9.210;2023-10-31T05:52:58;4.32;;;0.40;;
46334;SDS011;32051;48.882;9.210;2023-10-31T05:55:25;0.80;;;0.80;;
46334;SDS011;32051;48.882;9.210;2023-10-31T05:57:51;0.45;;;0.20;;
46334;SDS011;32051;48.882;9.210;2023-10-31T06:00:17;0.22;;;0.22;;
46334;SDS011;32051;48.882;9.210;2023-10-31T06:02:43;0.43;;;0.30;;
46334;SDS011;32051;48.882;9.210;2023-10-31T06:05:09;2.40;;;0.52;;
46334;SDS011;32051;48.882;9.210;2023-10-31T06:07:35;0.43;;;0.40;;
46334;SDS011;32051;48.882;9.210;2023-10-31T06:10:01;0.30;;;0.28;;
46334;SDS011;32051;48.882;9.210;2023-10-31T06:12:28;2.42;;;0.40;;
46334;SDS011;32051;48.882;9.210;2023-10-31T06:14:54;1.35;;;0.50;;
46334;SDS011;32051;48.882;9.210;2023-10-31T06:17:20;0.85;;;0.30;;
46334;SDS011;32051;48.882;9.210;2023-10-31T06:19:47;0.40;;;0.40;;
46334;SDS011;32051;48.882;9.210;2023-10-31T06:22:13;2.00;;;1.35;;
46334;SDS011;32051;48.882;9.210;2023-10-31T06:24:39;3.40;;;0.65;;
46334;SDS011;32051;48.882;9.210;2023-10-31T06:27:05;0.70;;;0.50;;
46334;SDS011;32051;48.882;9.210;2023-10-31T06:29:32;6.45;;;0.60;;
46334;SDS011;32051;48.882;9.210;2023-10-31T06:31:58;0.80;;;0.80;;
46334;SDS011;32051;48.882;9.210;2023-10-31T06:34:24;0.28;;;0.28;;
46334;SDS011;32051;48.882;9.210;2023-10-31T06:36:50;5.68;;;1.02;;
46334;SDS011;32051;48.882;9.210;2023-10-31T06:39:17;3.60;;;1.08;;
46334;SDS011;32051;48.882;9.210;2023-10-31T06:41:43;0.30;;;0.30;;
46334;SDS011;32051;48.882;9.210;2023-10-31T06:44:09;0.32;;;0.28;;
46334;SDS011;32051;48.882;9.210;2023-10-31T06:46:35;2.17;;;0.40;;
46334;SDS011;32051;48.882;9.210;2023-10-31T06:49:01;0.30;;;0.30;;
46334;SDS011;32051;48.882;9.210;2023-10-31T06:51:27;0.63;;;0.50;;
46334;SDS011;32051;48.882;9.210;2023-10-31T06:53:53;0.43;;;0.30;;
46334;SDS011;32051;48.882;9.210;2023-10-31T06:56:19;2.75;;;0.50;;
46334;SDS011;32051;48.882;9.210;2023-10-31T06:58:46;0.70;;;0.30;;
46334;SDS011;32051;48.882;9.210;2023-10-31T07:01:12;0.20;;;0.20;;
46334;SDS011;32051;48.882;9.210;2023-10-31T07:03:43;0.40;;;0.40;;
46334;SDS011;32051;48.882;9.210;2023-10-31T07:06:09;5.53;;;0.30;;
46334;SDS011;32051;48.882;9.210;2023-10-31T07:08:35;0.95;;;0.50;;
46334;SDS011;32051;48.882;9.210;2023-10-31T07:11:01;1.60;;;0.32;;
46334;SDS011;32051;48.882;9.210;2023-10-31T07:13:27;0.73;;;0.28;;
46334;SDS011;32051;48.882;9.210;2023-10-31T07:15:53;1.20;;;0.47;;
46334;SDS011;32051;48.882;9.210;2023-10-31T07:18:19;0.43;;;0.43;;
46334;SDS011;32051;48.882;9.210;2023-10-31T07:20:45;0.15;;;0.15;;
46334;SDS011;32051;48.882;9.210;2023-10-31T07:23:11;2.05;;;1.10;;
46334;SDS011;32051;48.882;9.210;2023-10-31T07:25:37;0.68;;;0.68;;
46334;SDS011;32051;48.882;9.210;2023-10-31T07:28:03;2.42;;;0.50;;
46334;SDS011;32051;48.882;9.210;2023-10-31T07:30:29;1.27;;;0.30;;
46334;SDS011;32051;48.882;9.210;2023-10-31T07:32:56;2.90;;;0.90;;
46334;SDS011;32051;48.882;9.210;2023-10-31T07:35:22;2.30;;;0.85;;
46334;SDS011;32051;48.882;9.210;2023-10-31T07:37:48;1.95;;;0.40;;
46334;SDS011;32051;48.882;9.210;2023-10-31T07:40:14;1.75;;;0.43;;
46334;SDS011;32051;48.882;9.210;2023-10-31T07:42:40;0.47;;;0.40;;
46334;SDS011;32051;48.882;9.210;2023-10-31T07:45:06;0.35;;;0.22;;
46334;SDS011;32051;48.882;9.210;2023-10-31T07:47:32;3.00;;;0.70;;
46334;SDS011;32051;48.882;9.210;2023-10-31T07:49:58;2.33;;;0.55;;
46334;SDS011;32051;48.882;9.210;2023-10-31T07:52:24;3.03;;;0.47;;
46334;SDS011;32051;48.882;9.210;2023-10-31T07:54:51;0.85;;;0.40;;
46334;SDS011;32051;48.882;9.210;2023-10-31T07:57:17;0.93;;;0.32;;
46334;SDS011;32051;48.882;9.210;2023-10-31T07:59:43;0.47;;;0.47;;
46334;SDS011;32051;48.882;9.210;2023-10-31T08:02:10;1.75;;;0.60;;
46334;SDS011;32051;48.882;9.210;2023-10-31T08:04:36;0.57;;;0.50;;
46334;SDS011;32051;48.882;9.210;2023-10-31T08:07:02;0.85;;;0.55;;
46334;SDS011;32051;48.882;9.210;2023-10-31T08:09:28;1.45;;;0.55;;
46334;SDS011;32051;48.882;9.210;2023-10-31T08:11:54;2.17;;;0.40;;
46334;SDS011;32051;48.882;9.210;2023-10-31T08:14:20;3.03;;;0.50;;
46334;SDS011;32051;48.882;9.210;2023-10-31T08:16:47;3.95;;;0.50;;
46334;SDS011;32051;48.882;9.210;2023-10-31T08:19:13;15.68;;;3.22;;
46334;SDS011;32051;48.882;9.210;2023-10-31T08:21:39;1.52;;;0.93;;
46334;SDS011;32051;48.882;9.210;2023-10-31T08:24:06;3.97;;;0.77;;
46334;SDS011;32051;48.882;9.210;2023-10-31T08:26:32;0.93;;;0.93;;
46334;SDS011;32051;48.882;9.210;2023-10-31T08:28:59;0.70;;;0.70;;
46334;SDS011;32051;48.882;9.210;2023-10-31T08:31:25;1.15;;;0.43;;
46334;SDS011;32051;48.882;9.210;2023-10-31T08:33:51;4.47;;;0.40;;
46334;SDS011;32051;48.882;9.210;2023-10-31T08:36:17;0.90;;;0.45;;
46334;SDS011;32051;48.882;9.210;2023-10-31T08:38:43;5.10;;;1.15;;
46334;SDS011;32051;48.882;9.210;2023-10-31T08:41:09;0.47;;;0.20;;
46334;SDS011;32051;48.882;9.210;2023-10-31T08:43:35;1.20;;;0.40;;
46334;SDS011;32051;48.882;9.210;2023-10-31T08:46:01;2.28;;;0.40;;
46334;SDS011;32051;48.882;9.210;2023-10-31T08:48:28;0.60;;;0.60;;
46334;SDS011;32051;48.882;9.210;2023-10-31T08:50:54;0.47;;;0.30;;
46334;SDS011;32051;48.882;9.210;2023-10-31T08:53:20;1.40;;;1.08;;
46334;SDS011;32051;48.882;9.210;2023-10-31T08:55:46;1.80;;;0.50;;
46334;SDS011;32051;48.882;9.210;2023-10-31T08:58:12;0.43;;;0.43;;
46334;SDS011;32051;48.882;9.210;2023-10-31T09:00:38;0.88;;;0.32;;
46334;SDS011;32051;48.882;9.210;2023-10-31T09:03:07;0.38;;;0.30;;
46334;SDS011;32051;48.882;9.210;2023-10-31T09:05:33;1.20;;;1.13;;
46334;SDS011;32051;48.882;9.210;2023-10-31T09:08:00;2.25;;;0.52;;
46334;SDS011;32051;48.882;9.210;2023-10-31T09:10:26;3.10;;;1.23;;
46334;SDS011;32051;48.882;9.210;2023-10-31T09:12:52;1.20;;;0.30;;
46334;SDS011;32051;48.882;9.210;2023-10-31T09:15:18;0.70;;;0.57;;
46334;SDS011;32051;48.882;9.210;2023-10-31T09:17:44;0.80;;;0.57;;
46334;SDS011;32051;48.882;9.210;2023-10-31T09:20:11;0.77;;;0.57;;
46334;SDS011;32051;48.882;9.210;2023-10-31T09:22:37;1.30;;;0.75;;
46334;SDS011;32051;48.882;9.210;2023-10-31T09:25:03;0.73;;;0.60;;
46334;SDS011;32051;48.882;9.210;2023-10-31T09:27:29;1.77;;;0.55;;
46334;SDS011;32051;48.882;9.210;2023-10-31T09:29:56;0.52;;;0.40;;
46334;SDS011;32051;48.882;9.210;2023-10-31T09:32:22;3.17;;;0.60;;
46334;SDS011;32051;48.882;9.210;2023-10-31T09:34:48;1.85;;;1.05;;
46334;SDS011;32051;48.882;9.210;2023-10-31T09:37:14;0.55;;;0.55;;
46334;SDS011;32051;48.882;9.210;2023-10-31T09:39:40;5.38;;;1.58;;
46334;SDS011;32051;48.882;9.210;2023-10-31T09:42:06;5.28;;;1.60;;
46334;SDS011;32051;48.882;9.210;2023-10-31T09:44:32;3.05;;;0.50;;
46334;SDS011;32051;48.882;9.210;2023-10-31T09:46:59;4.32;;;1.30;;
46334;SDS011;32051;48.882;9.210;2023-10-31T09:49:26;3.33;;;0.50;;
46334;SDS011;32051;48.882;9.210;2023-10-31T09:51:52;1.15;;;0.50;;
46334;SDS011;32051;48.882;9.210;2023-10-31T09:54:18;4.32;;;1.40;;
46334;SDS011;32051;48.882;9.210;2023-10-31T09:56:45;3.08;;;0.52;;
46334;SDS011;32051;48.882;9.210;2023-10-31T09:59:13;1.33;;;0.73;;
46334;SDS011;32051;48.882;9.210;2023-10-31T10:01:39;2.72;;;0.73;;
46334;SDS011;32051;48.882;9.210;2023-10-31T10:04:07;3.42;;;0.95;;
46334;SDS011;32051;48.882;9.210;2023-10-31T10:06:33;3.88;;;0.68;;
46334;SDS011;32051;48.882;9.210;2023-10-31T10:08:59;4.28;;;0.50;;
46334;SDS011;32051;48.882;9.210;2023-10-31T10:11:28;7.20;;;0.90;;
46334;SDS011;32051;48.882;9.210;2023-10-31T10:13:54;2.08;;;0.80;;
46334;SDS011;32051;48.882;9.210;2023-10-31T10:16:32;3.08;;;0.98;;
46334;SDS011;32051;48.882;9.210;2023-10-31T10:19:14;6.40;;;1.02;;
46334;SDS011;32051;48.882;9.210;2023-10-31T10:22:02;1.77;;;1.10;;
46334;SDS011;32051;48.882;9.210;2023-10-31T10:24:29;3.80;;;0.90;;
46334;SDS011;32051;48.882;9.210;2023-10-31T10:26:55;2.97;;;0.52;;
46334;SDS011;32051;48.882;9.210;2023-10-31T10:29:23;5.03;;;0.68;;
46334;SDS011;32051;48.882;9.210;2023-10-31T10:31:51;6.05;;;1.15;;
46334;SDS011;32051;48.882;9.210;2023-10-31T10:34:17;4.50;;;0.80;;
46334;SDS011;32051;48.882;9.210;2023-10-31T10:36:46;6.18;;;0.70;;
46334;SDS011;32051;48.882;9.210;2023-10-31T10:39:15;1.75;;;0.63;;
46334;SDS011;32051;48.882;9.210;2023-10-31T10:41:44;4.53;;;0.73;;
46334;SDS011;32051;48.882;9.210;2023-10-31T10:44:13;1.55;;;0.90;;
46334;SDS011;32051;48.882;9.210;2023-10-31T10:46:41;4.10;;;1.02;;
46334;SDS011;32051;48.882;9.210;2023-10-31T10:49:09;2.08;;;1.67;;
46334;SDS011;32051;48.882;9.210;2023-10-31T10:51:40;4.80;;;1.25;;
46334;SDS011;32051;48.882;9.210;2023-10-31T10:54:11;3.03;;;1.00;;
46334;SDS011;32051;48.882;9.210;2023-10-31T10:56:42;2.65;;;0.82;;
46334;SDS011;32051;48.882;9.210;2023-10-31T10:59:19;5.95;;;1.27;;
46334;SDS011;32051;48.882;9.210;2023-10-31T11:01:46;2.78;;;0.60;;
46334;SDS011;32051;48.882;9.210;2023-10-31T11:04:13;4.07;;;0.85;;
46334;SDS011;32051;48.882;9.210;2023-10-31T11:06:40;3.42;;;0.98;;
46334;SDS011;32051;48.882;9.210;2023-10-31T11:09:06;5.47;;;0.70;;
46334;SDS011;32051;48.882;9.210;2023-10-31T11:11:33;9.00;;;0.88;;
46334;SDS011;32051;48.882;9.210;2023-10-31T11:14:00;3.05;;;0.70;;
46334;SDS011;32051;48.882;9.210;2023-10-31T11:16:34;0.57;;;0.30;;
46334;SDS011;32051;48.882;9.210;2023-10-31T11:19:03;2.50;;;0.93;;
46334;SDS011;32051;48.882;9.210;2023-10-31T11:21:31;2.05;;;0.43;;
46334;SDS011;32051;48.882;9.210;2023-10-31T11:24:00;1.58;;;0.50;;
46334;SDS011;32051;48.882;9.210;2023-10-31T11:26:29;1.35;;;0.63;;
46334;SDS011;32051;48.882;9.210;2023-10-31T11:29:03;5.22;;;1.23;;
46334;SDS011;32051;48.882;9.210;2023-10-31T11:31:30;3.22;;;0.68;;
46334;SDS011;32051;48.882;9.210;2023-10-31T11:33:57;4.75;;;0.88;;
46334;SDS011;32051;48.882;9.210;2023-10-31T11:36:23;1.00;;;0.43;;
46334;SDS011;32051;48.882;9.210;2023-10-31T11:38:50;1.83;;;0.30;;
46334;SDS011;32051;48.882;9.210;2023-10-31T11:41:35;1.00;;;0.38;;
46334;SDS011;32051;48.882;9.210;2023-10-31T11:44:02;1.70;;;0.93;;
46334;SDS011;32051;48.882;9.210;2023-10-31T11:46:28;1.33;;;0.47;;
46334;SDS011;32051;48.882;9.210;2023-10-31T11:48:54;3.03;;;0.57;;
46334;SDS011;32051;48.882;9.210;2023-10-31T11:51:21;1.73;;;0.88;;
46334;SDS011;32051;48.882;9.210;2023-10-31T11:53:50;4.93;;;0.68;;
46334;SDS011;32051;48.882;9.210;2023-10-31T11:56:19;0.73;;;0.60;;
46334;SDS011;32051;48.882;9.210;2023-10-31T11:58:54;1.02;;;0.88;;
46334;SDS011;32051;48.882;9.210;2023-10-31T12:01:21;0.80;;;0.80;;
46334;SDS011;32051;48.882;9.210;2023-10-31T12:03:47;5.78;;;0.40;;
46334;SDS011;32051;48.882;9.210;2023-10-31T12:06:14;3.75;;;0.73;;
46334;SDS011;32051;48.882;9.210;2023-10-31T12:08:41;1.77;;;0.80;;
46334;SDS011;32051;48.882;9.210;2023-10-31T12:11:11;0.68;;;0.50;;
46334;SDS011;32051;48.882;9.210;2023-10-31T12:13:38;0.73;;;0.50;;
46334;SDS011;32051;48.882;9.210;2023-10-31T12:16:05;1.20;;;0.50;;
46334;SDS011;32051;48.882;9.210;2023-10-31T12:18:33;3.05;;;1.35;;
46334;SDS011;32051;48.882;9.210;2023-10-31T12:20:59;1.35;;;0.52;;
46334;SDS011;32051;48.882;9.210;2023-10-31T12:23:25;0.73;;;0.40;;
46334;SDS011;32051;48.882;9.210;2023-10-31T12:25:52;2.92;;;0.47;;
46334;SDS011;32051;48.882;9.210;2023-10-31T12:28:18;2.53;;;0.65;;
46334;SDS011;32051;48.882;9.210;2023-10-31T12:30:45;1.33;;;0.70;;
46334;SDS011;32051;48.882;9.210;2023-10-31T12:33:12;2.65;;;1.25;;
46334;SDS011;32051;48.882;9.210;2023-10-31T12:35:38;1.10;;;0.93;;
46334;SDS011;32051;48.882;9.210;2023-10-31T12:38:04;1.75;;;1.65;;
46334;SDS011;32051;48.882;9.210;2023-10-31T12:40:31;5.20;;;1.50;;
46334;SDS011;32051;48.882;9.210;2023-10-31T12:42:57;4.78;;;1.83;;
46334;SDS011;32051;48.882;9.210;2023-10-31T12:45:24;1.98;;;1.77;;
46334;SDS011;32051;48.882;9.210;2023-10-31T12:48:00;3.80;;;2.17;;
46334;SDS011;32051;48.882;9.210;2023-10-31T12:50:27;3.28;;;1.60;;
46334;SDS011;32051;48.882;9.210;2023-10-31T12:52:54;5.38;;;2.42;;
46334;SDS011;32051;48.882;9.210;2023-10-31T12:55:23;3.58;;;1.83;;
46334;SDS011;32051;48.882;9.210;2023-10-31T12:57:49;1.90;;;1.50;;
46334;SDS011;32051;48.882;9.210;2023-10-31T13:00:16;4.88;;;1.98;;
46334;SDS011;32051;48.882;9.210;2023-10-31T13:03:04;3.60;;;1.45;;
46334;SDS011;32051;48.882;9.210;2023-10-31T13:05:30;8.02;;;1.98;;
46334;SDS011;32051;48.882;9.210;2023-10-31T13:07:57;7.43;;;3.03;;
46334;SDS011;32051;48.882;9.210;2023-10-31T13:10:25;6.95;;;2.05;;
46334;SDS011;32051;48.882;9.210;2023-10-31T13:12:52;2.83;;;1.73;;
46334;SDS011;32051;48.882;9.210;2023-10-31T13:15:19;3.47;;;1.67;;
46334;SDS011;32051;48.882;9.210;2023-10-31T13:17:46;2.20;;;1.95;;
46334;SDS011;32051;48.882;9.210;2023-10-31T13:20:13;11.05;;;2.47;;
46334;SDS011;32051;48.882;9.210;2023-10-31T13:22:39;6.18;;;2.40;;
46334;SDS011;32051;48.882;9.210;2023-10-31T13:25:06;1.92;;;1.83;;
46334;SDS011;32051;48.882;9.210;2023-10-31T13:27:35;1.35;;;1.25;;
46334;SDS011;32051;48.882;9.210;2023-10-31T13:30:01;2.40;;;1.42;;
46334;SDS011;32051;48.882;9.210;2023-10-31T13:32:27;4.78;;;1.60;;
46334;SDS011;32051;48.882;9.210;2023-10-31T13:34:53;2.35;;;1.30;;
46334;SDS011;32051;48.882;9.210;2023-10-31T13:37:19;3.35;;;1.50;;
46334;SDS011;32051;48.882;9.210;2023-10-31T13:39:46;3.53;;;1.40;;
46334;SDS011;32051;48.882;9.210;2023-10-31T13:42:12;1.20;;;1.10;;
46334;SDS011;32051;48.882;9.210;2023-10-31T13:44:39;2.65;;;0.95;;
46334;SDS011;32051;48.882;9.210;2023-10-31T13:47:05;1.52;;;0.70;;
46334;SDS011;32051;48.882;9.210;2023-10-31T13:49:31;3.28;;;1.52;;
46334;SDS011;32051;48.882;9.210;2023-10-31T13:51:57;0.70;;;0.60;;
46334;SDS011;32051;48.882;9.210;2023-10-31T13:54:24;2.58;;;0.60;;
46334;SDS011;32051;48.882;9.210;2023-10-31T13:56:50;3.03;;;0.85;;
46334;SDS011;32051;48.882;9.210;2023-10-31T13:59:16;1.08;;;0.52;;
46334;SDS011;32051;48.882;9.210;2023-10-31T14:01:43;2.33;;;0.90;;
46334;SDS011;32051;48.882;9.210;2023-10-31T14:04:13;3.35;;;0.63;;
46334;SDS011;32051;48.882;9.210;2023-10-31T14:06:39;1.25;;;0.40;;
46334;SDS011;32051;48.882;9.210;2023-10-31T14:09:05;3.88;;;0.63;;
46334;SDS011;32051;48.882;9.210;2023-10-31T14:11:33;1.05;;;0.63;;
46334;SDS011;32051;48.882;9.210;2023-10-31T14:13:59;2.90;;;0.50;;
46334;SDS011;32051;48.882;9.210;2023-10-31T14:16:28;0.93;;;0.40;;
46334;SDS011;32051;48.882;9.210;2023-10-31T14:18:55;5.93;;;0.40;;
46334;SDS011;32051;48.882;9.210;2023-10-31T14:21:21;0.30;;;0.30;;
46334;SDS011;32051;48.882;9.210;2023-10-31T14:23:47;1.55;;;0.93;;
46334;SDS011;32051;48.882;9.210;2023-10-31T14:26:21;0.85;;;0.30;;
46334;SDS011;32051;48.882;9.210;2023-10-31T14:28:48;1.00;;;0.45;;
46334;SDS011;32051;48.882;9.210;2023-10-31T14:31:14;1.58;;;0.82;;
46334;SDS011;32051;48.882;9.210;2023-10-31T14:33:40;0.80;;;0.30;;
46334;SDS011;32051;48.882;9.210;2023-10-31T14:36:06;0.38;;;0.38;;
46334;SDS011;32051;48.882;9.210;2023-10-31T14:38:35;0.43;;;0.35;;
46334;SDS011;32051;48.882;9.210;2023-10-31T14:41:01;2.28;;;0.75;;
46334;SDS011;32051;48.882;9.210;2023-10-31T14:43:28;0.52;;;0.52;;
46334;SDS011;32051;48.882;9.210;2023-10-31T14:45:54;0.55;;;0.20;;